createdAt,value
2022-10-10T00:01:23.771Z,14.44
2022-10-10T00:03:50.603Z,14.42
2022-10-10T00:06:17.879Z,14.42
2022-10-10T00:08:45.447Z,14.37
2022-10-10T00:11:13.458Z,14.44
2022-10-10T00:13:40.724Z,14.45
2022-10-10T00:16:07.378Z,14.43
2022-10-10T00:18:34.497Z,14.36
2022-10-10T00:21:01.331Z,14.42
2022-10-10T00:23:28.218Z,14.36
2022-10-10T00:25:55.110Z,14.36
2022-10-10T00:28:21.968Z,14.38
2022-10-10T00:30:48.725Z,14.33
2022-10-10T00:33:15.427Z,14.29
2022-10-10T00:35:42.490Z,14.31
2022-10-10T00:38:09.448Z,14.28
2022-10-10T00:40:44.142Z,14.23
2022-10-10T00:43:13.442Z,14.21
2022-10-10T00:45:42.378Z,14.15
2022-10-10T00:48:13.878Z,14.15
2022-10-10T00:50:46.397Z,14.02
2022-10-10T00:53:17.308Z,14.15
2022-10-10T00:55:45.182Z,14.17
2022-10-10T00:58:12.608Z,14.22
2022-10-10T01:00:39.332Z,14.15
2022-10-10T01:03:05.989Z,14.11
2022-10-10T01:05:33.829Z,14.09
2022-10-10T01:08:02.294Z,14.06
2022-10-10T01:10:29.199Z,14.00
2022-10-10T01:12:58.510Z,14.04
2022-10-10T01:15:55.200Z,14.12
2022-10-10T01:18:27.590Z,13.94
2022-10-10T01:20:57.139Z,13.92
2022-10-10T01:23:29.809Z,13.82
2022-10-10T01:25:59.306Z,13.93
2022-10-10T01:28:50.073Z,13.91
2022-10-10T01:31:22.549Z,13.87
2022-10-10T01:34:17.181Z,13.88
2022-10-10T01:37:09.128Z,13.95
2022-10-10T01:40:12.573Z,13.93
2022-10-10T01:42:42.030Z,13.89
2022-10-10T01:45:09.488Z,13.83
2022-10-10T01:47:36.131Z,13.76
2022-10-10T01:50:09.268Z,13.78
2022-10-10T01:53:16.946Z,13.75
2022-10-10T01:55:54.955Z,13.64
2022-10-10T01:58:45.531Z,13.58
2022-10-10T02:01:37.092Z,13.56
2022-10-10T02:04:30.213Z,13.47
2022-10-10T02:07:06.634Z,13.37
2022-10-10T02:09:42.650Z,13.50
2022-10-10T02:12:12.549Z,13.47
2022-10-10T02:14:50.670Z,13.48
2022-10-10T02:17:18.398Z,13.52
2022-10-10T02:19:50.993Z,13.54
2022-10-10T02:22:20.876Z,13.56
2022-10-10T02:24:47.760Z,13.49
2022-10-10T02:27:23.782Z,13.54
2022-10-10T02:29:52.675Z,13.60
2022-10-10T02:32:31.658Z,13.62
2022-10-10T02:35:05.824Z,13.63
2022-10-10T02:37:33.210Z,13.63
2022-10-10T02:40:02.547Z,13.63
2022-10-10T02:42:30.106Z,13.61
2022-10-10T02:44:57.611Z,13.66
2022-10-10T02:47:24.433Z,13.62
2022-10-10T02:49:51.240Z,13.62
2022-10-10T02:52:18.363Z,13.60
2022-10-10T02:54:44.929Z,13.69
2022-10-10T02:57:12.285Z,13.63
2022-10-10T02:59:38.925Z,13.68
2022-10-10T03:02:06.386Z,13.69
2022-10-10T03:04:33.073Z,13.67
2022-10-10T03:06:59.712Z,13.70
2022-10-10T03:09:26.331Z,13.74
2022-10-10T03:11:52.992Z,13.81
2022-10-10T03:14:19.603Z,13.79
2022-10-10T03:16:46.249Z,13.75
2022-10-10T03:19:12.846Z,13.64
2022-10-10T03:21:39.625Z,13.72
2022-10-10T03:24:06.370Z,13.70
2022-10-10T03:26:32.988Z,13.70
2022-10-10T03:29:02.222Z,13.69
2022-10-10T03:31:29.314Z,13.63
2022-10-10T03:33:55.842Z,13.59
2022-10-10T03:36:23.185Z,13.55
2022-10-10T03:38:49.776Z,13.54
2022-10-10T03:41:16.389Z,13.59
2022-10-10T03:43:43.000Z,13.65
2022-10-10T03:46:15.083Z,13.70
2022-10-10T03:48:43.092Z,13.68
2022-10-10T03:51:09.891Z,13.74
2022-10-10T03:53:37.122Z,13.77
2022-10-10T03:56:04.181Z,13.78
2022-10-10T03:58:31.044Z,13.78
2022-10-10T04:01:00.765Z,13.76
2022-10-10T04:03:28.187Z,13.75
2022-10-10T04:05:55.191Z,13.77
2022-10-10T04:08:21.851Z,13.79
2022-10-10T04:10:52.949Z,13.82
2022-10-10T04:13:21.110Z,13.82
2022-10-10T04:15:51.944Z,13.75
2022-10-10T04:18:19.506Z,13.74
2022-10-10T04:20:46.093Z,13.72
2022-10-10T04:23:12.786Z,13.62
2022-10-10T04:25:39.536Z,13.70
2022-10-10T04:28:06.258Z,13.75
2022-10-10T04:30:34.713Z,13.74
2022-10-10T04:33:01.608Z,13.80
2022-10-10T04:35:28.318Z,13.81
2022-10-10T04:37:55.051Z,13.81
2022-10-10T04:40:26.386Z,13.75
2022-10-10T04:42:54.775Z,13.72
2022-10-10T04:45:21.669Z,13.72
2022-10-10T04:47:48.469Z,13.76
2022-10-10T04:50:15.125Z,13.74
2022-10-10T04:52:41.910Z,13.72
2022-10-10T04:55:08.711Z,13.71
2022-10-10T04:57:35.364Z,13.72
2022-10-10T05:00:03.071Z,13.80
2022-10-10T05:02:29.737Z,13.78
2022-10-10T05:04:56.318Z,13.83
2022-10-10T05:07:23.923Z,13.77
2022-10-10T05:09:50.724Z,13.75
2022-10-10T05:12:17.385Z,13.69
2022-10-10T05:14:47.910Z,13.77
2022-10-10T05:17:15.344Z,13.75
2022-10-10T05:19:41.909Z,13.70
2022-10-10T05:22:08.565Z,13.69
2022-10-10T05:24:35.155Z,13.74
2022-10-10T05:27:01.767Z,13.74
2022-10-10T05:29:28.497Z,13.76
2022-10-10T05:31:55.246Z,13.80
2022-10-10T05:34:21.911Z,13.83
2022-10-10T05:36:48.600Z,13.80
2022-10-10T05:39:15.249Z,13.78
2022-10-10T05:41:41.877Z,13.79
2022-10-10T05:44:09.221Z,13.78
2022-10-10T05:46:35.903Z,13.72
2022-10-10T05:49:02.484Z,13.73
2022-10-10T05:51:29.167Z,13.75
2022-10-10T05:53:57.417Z,13.80
2022-10-10T05:56:24.122Z,13.82
2022-10-10T05:58:51.576Z,13.69
2022-10-10T06:01:18.578Z,13.84
2022-10-10T06:03:45.160Z,13.81
2022-10-10T06:06:11.810Z,13.81
2022-10-10T06:08:38.469Z,13.86
2022-10-10T06:11:11.169Z,13.85
2022-10-10T06:13:38.626Z,13.79
2022-10-10T06:16:05.297Z,13.76
2022-10-10T06:18:31.960Z,13.69
2022-10-10T06:21:02.946Z,13.74
2022-10-10T06:23:29.594Z,13.76
2022-10-10T06:25:56.260Z,13.73
2022-10-10T06:28:23.323Z,13.75
2022-10-10T06:30:51.260Z,13.79
2022-10-10T06:33:19.352Z,13.81
2022-10-10T06:35:48.472Z,13.77
2022-10-10T06:38:16.500Z,13.77
2022-10-10T06:40:43.477Z,13.76
2022-10-10T06:43:12.337Z,13.76
2022-10-10T06:45:40.976Z,13.77
2022-10-10T06:48:08.942Z,13.84
2022-10-10T06:50:35.876Z,13.91
2022-10-10T06:53:02.573Z,13.91
2022-10-10T06:55:29.338Z,13.92
2022-10-10T06:57:56.086Z,13.86
2022-10-10T07:00:22.883Z,13.87
2022-10-10T07:02:49.960Z,13.94
2022-10-10T07:05:18.139Z,13.98
2022-10-10T07:07:45.278Z,13.99
2022-10-10T07:10:14.167Z,13.98
2022-10-10T07:12:44.705Z,14.02
2022-10-10T07:15:12.646Z,14.01
2022-10-10T07:17:39.484Z,14.04
2022-10-10T07:20:07.127Z,14.03
2022-10-10T07:22:33.892Z,14.04
2022-10-10T07:25:00.560Z,14.03
2022-10-10T07:27:27.414Z,14.00
2022-10-10T07:29:54.194Z,14.09
2022-10-10T07:32:20.791Z,14.10
2022-10-10T07:34:47.439Z,14.06
2022-10-10T07:37:14.028Z,14.08
2022-10-10T07:39:40.762Z,14.08
2022-10-10T07:42:07.446Z,14.10
2022-10-10T07:44:34.820Z,14.09
2022-10-10T07:47:01.879Z,14.12
2022-10-10T07:49:28.811Z,14.13
2022-10-10T07:52:00.550Z,14.17
2022-10-10T07:54:31.807Z,14.16
2022-10-10T07:56:59.191Z,14.18
2022-10-10T07:59:26.117Z,14.16
2022-10-10T08:01:53.018Z,14.18
2022-10-10T08:04:20.275Z,14.17
2022-10-10T08:06:46.981Z,14.26
2022-10-10T08:09:13.623Z,14.26
2022-10-10T08:11:40.426Z,14.27
2022-10-10T08:14:06.988Z,14.20
2022-10-10T08:16:33.697Z,14.18
2022-10-10T08:19:00.288Z,14.20
2022-10-10T08:21:27.050Z,14.19
2022-10-10T08:23:53.642Z,14.24
2022-10-10T08:26:20.503Z,14.28
2022-10-10T08:28:48.682Z,14.32
2022-10-10T08:31:19.536Z,14.36
2022-10-10T08:33:47.789Z,14.43
2022-10-10T08:36:18.364Z,14.39
2022-10-10T08:38:45.653Z,14.39
2022-10-10T08:41:26.213Z,14.36
2022-10-10T08:43:58.367Z,14.31
2022-10-10T08:46:43.688Z,14.32
2022-10-10T08:49:30.682Z,14.28
2022-10-10T08:52:08.054Z,14.35
2022-10-10T08:54:37.338Z,14.41
2022-10-10T08:57:06.894Z,14.33
2022-10-10T08:59:38.515Z,14.40
2022-10-10T09:02:43.551Z,14.38
2022-10-10T09:05:18.472Z,14.37
2022-10-10T09:08:00.266Z,14.37
2022-10-10T09:10:49.929Z,14.38
2022-10-10T09:13:25.398Z,14.38
2022-10-10T09:15:57.599Z,14.41
2022-10-10T09:18:43.043Z,14.45
2022-10-10T09:21:22.148Z,14.44
2022-10-10T09:24:05.515Z,14.44
2022-10-10T09:26:47.888Z,14.49
2022-10-10T09:29:23.723Z,14.48
2022-10-10T09:31:56.797Z,14.43
2022-10-10T09:34:38.617Z,14.42
2022-10-10T09:37:24.206Z,14.44
2022-10-10T09:40:03.266Z,14.46
2022-10-10T09:42:38.665Z,14.46
2022-10-10T09:45:37.522Z,14.51
2022-10-10T09:48:04.663Z,14.53
2022-10-10T09:50:31.403Z,14.52
2022-10-10T09:52:58.417Z,14.58
2022-10-10T09:55:30.518Z,14.57
2022-10-10T09:58:04.017Z,14.55
2022-10-10T10:00:36.562Z,14.52
2022-10-10T10:03:12.606Z,14.54
2022-10-10T10:05:41.826Z,14.51
2022-10-10T10:08:35.452Z,14.52
2022-10-10T10:11:04.170Z,14.54
2022-10-10T10:13:36.387Z,14.54
2022-10-10T10:16:36.650Z,14.57
2022-10-10T10:19:04.703Z,14.60
2022-10-10T10:21:32.296Z,14.63
2022-10-10T10:23:58.949Z,14.67
2022-10-10T10:26:51.134Z,14.66
2022-10-10T10:29:31.606Z,14.70
2022-10-10T10:32:18.954Z,14.75
2022-10-10T10:34:57.684Z,14.76
2022-10-10T10:37:36.016Z,14.72
2022-10-10T10:40:04.358Z,14.77
2022-10-10T10:42:42.680Z,14.78
2022-10-10T10:45:28.983Z,14.76
2022-10-10T10:48:23.141Z,14.75
2022-10-10T10:50:55.583Z,14.77
2022-10-10T10:53:36.130Z,14.79
2022-10-10T10:56:46.667Z,14.87
2022-10-10T11:00:26.868Z,14.92
2022-10-10T11:02:59.759Z,14.87
2022-10-10T11:05:41.769Z,14.92
2022-10-10T11:08:33.710Z,14.91
2022-10-10T11:11:09.078Z,14.91
2022-10-10T11:14:00.419Z,14.93
2022-10-10T11:16:47.485Z,14.94
2022-10-10T11:19:15.390Z,14.96
2022-10-10T11:21:49.560Z,14.95
2022-10-10T11:24:33.694Z,14.98
2022-10-10T11:27:07.495Z,14.92
2022-10-10T11:29:51.190Z,14.95
2022-10-10T11:32:43.121Z,14.98
2022-10-10T11:35:36.682Z,14.95
2022-10-10T11:38:12.770Z,15.05
2022-10-10T11:40:55.282Z,15.02
2022-10-10T11:43:35.032Z,15.01
2022-10-10T11:46:39.421Z,15.02
2022-10-10T11:49:14.184Z,15.05
2022-10-10T11:52:32.033Z,15.08
2022-10-10T11:55:03.891Z,15.07
2022-10-10T11:57:47.875Z,15.11
2022-10-10T12:00:17.896Z,15.05
2022-10-10T12:02:47.254Z,15.08
2022-10-10T12:05:26.186Z,15.09
2022-10-10T12:08:21.966Z,15.13
2022-10-10T12:10:58.701Z,15.13
2022-10-10T12:13:34.206Z,15.09
2022-10-10T12:16:13.053Z,15.22
2022-10-10T12:18:53.111Z,15.12
2022-10-10T12:21:22.702Z,15.16
2022-10-10T12:23:57.412Z,15.22
2022-10-10T12:26:24.458Z,15.17
2022-10-10T12:29:10.425Z,15.18
2022-10-10T12:31:37.885Z,15.20
2022-10-10T12:34:10.435Z,15.20
2022-10-10T12:36:40.083Z,15.19
2022-10-10T12:39:07.873Z,15.23
2022-10-10T12:41:47.205Z,15.23
2022-10-10T12:44:23.690Z,15.23
2022-10-10T12:48:04.428Z,15.11
2022-10-10T12:50:37.005Z,15.22
2022-10-10T12:53:12.446Z,15.24
2022-10-10T12:55:46.956Z,15.31
2022-10-10T12:58:28.375Z,15.32
2022-10-10T13:01:01.309Z,15.35
2022-10-10T13:03:44.548Z,15.42
2022-10-10T13:06:40.364Z,15.52
2022-10-10T13:09:10.950Z,15.55
2022-10-10T13:12:29.821Z,15.57
2022-10-10T13:14:57.530Z,15.53
2022-10-10T13:17:32.031Z,15.50
2022-10-10T13:20:00.888Z,15.55
2022-10-10T13:22:30.096Z,15.54
2022-10-10T13:24:58.252Z,15.56
2022-10-10T13:27:35.153Z,15.55
2022-10-10T13:30:02.588Z,15.63
2022-10-10T13:32:33.375Z,15.68
2022-10-10T13:35:06.480Z,15.72
2022-10-10T13:37:33.913Z,15.73
2022-10-10T13:40:01.261Z,15.77
2022-10-10T13:42:33.123Z,15.76
2022-10-10T13:45:01.400Z,15.67
2022-10-10T13:47:40.085Z,15.74
2022-10-10T13:50:20.835Z,15.75
2022-10-10T13:52:47.517Z,15.70
2022-10-10T13:55:20.771Z,15.73
2022-10-10T13:57:51.504Z,15.75
2022-10-10T14:00:24.944Z,15.78
2022-10-10T14:02:51.765Z,15.80
2022-10-10T14:05:29.526Z,15.76
2022-10-10T14:07:57.636Z,15.75
2022-10-10T14:10:27.344Z,15.73
2022-10-10T14:13:00.558Z,15.77
2022-10-10T14:15:42.461Z,15.75
2022-10-10T14:18:24.584Z,15.76
2022-10-10T14:20:53.580Z,15.73
2022-10-10T14:23:20.332Z,15.74
2022-10-10T14:25:49.244Z,15.73
2022-10-10T14:28:19.993Z,15.78
2022-10-10T14:30:48.098Z,15.71
2022-10-10T14:33:18.252Z,15.75
2022-10-10T14:35:46.700Z,15.70
2022-10-10T14:38:15.079Z,15.66
2022-10-10T14:40:45.065Z,15.76
2022-10-10T14:43:12.357Z,15.76
2022-10-10T14:45:39.363Z,15.74
2022-10-10T14:48:06.480Z,15.72
2022-10-10T14:50:38.306Z,15.72
2022-10-10T14:53:05.090Z,15.70
2022-10-10T14:55:31.721Z,15.69
2022-10-10T14:58:01.157Z,15.72
2022-10-10T15:00:34.340Z,15.63
2022-10-10T15:03:10.273Z,15.66
2022-10-10T15:05:36.964Z,15.66
2022-10-10T15:08:10.176Z,15.63
2022-10-10T15:10:37.178Z,15.67
2022-10-10T15:13:03.778Z,15.75
2022-10-10T15:15:30.704Z,15.72
2022-10-10T15:18:52.669Z,15.70
2022-10-10T15:21:15.794Z,15.64
2022-10-10T15:24:01.013Z,15.73
2022-10-10T15:26:35.094Z,15.73
2022-10-10T15:29:17.576Z,15.74
2022-10-10T15:31:51.169Z,15.66
2022-10-10T15:34:37.682Z,15.72
2022-10-10T15:37:15.524Z,15.73
2022-10-10T15:39:51.905Z,15.72
2022-10-10T15:42:34.008Z,15.71
2022-10-10T15:45:03.168Z,15.67
2022-10-10T15:47:29.859Z,15.74
2022-10-10T15:49:56.636Z,15.70
2022-10-10T15:52:23.345Z,15.70
2022-10-10T15:54:50.194Z,15.65
2022-10-10T15:57:18.689Z,15.63
2022-10-10T15:59:46.604Z,15.67
2022-10-10T16:02:13.726Z,15.67
2022-10-10T16:04:40.679Z,15.61
2022-10-10T16:09:54.334Z,15.78
2022-10-10T16:12:21.266Z,15.67
2022-10-10T16:14:48.034Z,15.71
2022-10-10T16:17:15.986Z,15.70
2022-10-10T16:19:44.216Z,15.68
2022-10-10T16:22:10.842Z,15.62
2022-10-10T16:24:37.536Z,15.65
2022-10-10T16:27:04.156Z,15.65
2022-10-10T16:29:31.006Z,15.61
2022-10-10T16:31:57.916Z,15.59
2022-10-10T16:34:24.669Z,15.50
2022-10-10T16:36:51.302Z,15.46
2022-10-10T16:39:18.000Z,15.48
2022-10-10T16:41:48.986Z,15.51
2022-10-10T16:44:17.366Z,15.51
2022-10-10T16:46:44.557Z,15.55
2022-10-10T16:49:13.278Z,15.50
2022-10-10T16:51:40.234Z,15.48
2022-10-10T16:54:07.323Z,15.47
2022-10-10T16:56:34.940Z,15.44
2022-10-10T16:59:02.277Z,15.43
2022-10-10T17:01:29.293Z,15.36
2022-10-10T17:04:00.000Z,15.25
2022-10-10T17:06:32.632Z,15.15
2022-10-10T17:09:02.994Z,14.98
2022-10-10T17:11:29.643Z,15.03
2022-10-10T17:13:56.525Z,15.02
2022-10-10T17:19:12.298Z,14.91
2022-10-10T17:21:38.944Z,14.87
2022-10-10T17:24:05.820Z,14.86
2022-10-10T17:26:32.474Z,14.96
2022-10-10T17:28:59.756Z,14.98
2022-10-10T17:31:27.303Z,14.97
2022-10-10T17:33:55.018Z,14.90
2022-10-10T17:36:23.931Z,14.87
2022-10-10T17:38:51.196Z,14.91
2022-10-10T17:41:18.712Z,14.95
2022-10-10T17:43:45.833Z,14.98
2022-10-10T17:46:34.249Z,14.96
2022-10-10T17:49:06.181Z,15.00
2022-10-10T17:51:34.129Z,14.96
2022-10-10T17:54:01.860Z,14.96
2022-10-10T17:56:29.009Z,14.89
2022-10-10T17:58:55.836Z,14.86
2022-10-10T18:01:23.114Z,14.62
2022-10-10T18:03:49.901Z,14.65
2022-10-10T18:06:20.360Z,14.68
2022-10-10T18:08:48.066Z,14.76
2022-10-10T18:11:17.201Z,14.65
2022-10-10T18:13:44.715Z,14.67
2022-10-10T18:16:17.659Z,14.65
2022-10-10T18:18:50.632Z,14.58
2022-10-10T18:21:19.747Z,14.53
2022-10-10T18:23:46.349Z,14.59
2022-10-10T18:26:16.532Z,14.55
2022-10-10T18:28:43.517Z,14.46
2022-10-10T18:31:14.459Z,14.49
2022-10-10T18:33:42.194Z,14.50
2022-10-10T18:36:09.692Z,14.51
2022-10-10T18:38:37.651Z,14.40
2022-10-10T18:41:10.520Z,14.31
2022-10-10T18:43:38.419Z,14.35
2022-10-10T18:46:07.764Z,14.28
2022-10-10T18:48:35.363Z,14.31
2022-10-10T18:51:09.038Z,14.32
2022-10-10T18:53:37.349Z,14.25
2022-10-10T18:56:04.385Z,14.14
2022-10-10T18:58:31.722Z,14.20
2022-10-10T19:01:00.546Z,14.19
2022-10-10T19:03:28.464Z,14.16
2022-10-10T19:05:55.096Z,14.16
2022-10-10T19:08:21.942Z,14.17
2022-10-10T19:10:50.018Z,14.15
2022-10-10T19:13:17.941Z,14.15
2022-10-10T19:15:44.652Z,14.18
2022-10-10T19:18:11.438Z,14.17
2022-10-10T19:20:39.179Z,14.12
2022-10-10T19:23:06.618Z,14.17
2022-10-10T19:25:40.351Z,14.11
2022-10-10T19:28:07.722Z,14.09
2022-10-10T19:30:42.384Z,14.03
2022-10-10T19:33:09.699Z,14.01
2022-10-10T19:35:38.153Z,14.00
2022-10-10T19:38:06.351Z,14.10
2022-10-10T19:40:36.816Z,14.07
2022-10-10T19:43:03.579Z,14.06
2022-10-10T19:45:30.141Z,14.04
2022-10-10T19:47:56.864Z,14.06
2022-10-10T19:50:23.463Z,14.11
2022-10-10T19:52:50.079Z,14.06
2022-10-10T19:55:18.901Z,14.00
2022-10-10T19:57:45.700Z,13.89
2022-10-10T20:00:12.968Z,13.90
2022-10-10T20:02:39.714Z,13.94
2022-10-10T20:05:12.283Z,13.88
2022-10-10T20:07:39.153Z,13.87
2022-10-10T20:10:06.765Z,13.85
2022-10-10T20:12:34.564Z,13.83
2022-10-10T20:15:01.119Z,13.83
2022-10-10T20:17:28.613Z,13.87
2022-10-10T20:19:56.191Z,13.83
2022-10-10T20:22:23.085Z,13.82
2022-10-10T20:24:49.721Z,13.80
2022-10-10T20:27:16.477Z,13.84
2022-10-10T20:29:43.156Z,13.83
2022-10-10T20:32:10.211Z,13.82
2022-10-10T20:34:37.097Z,13.82
2022-10-10T20:37:04.367Z,13.86
2022-10-10T20:39:30.988Z,13.82
2022-10-10T20:41:57.664Z,13.80
2022-10-10T20:44:27.703Z,13.71
2022-10-10T20:46:54.810Z,13.81
2022-10-10T20:49:22.910Z,13.64
2022-10-10T20:51:52.138Z,13.75
2022-10-10T20:54:22.217Z,13.75
2022-10-10T20:56:49.868Z,13.60
2022-10-10T20:59:18.123Z,13.48
2022-10-10T21:01:47.838Z,13.55
2022-10-10T21:04:14.913Z,13.51
2022-10-10T21:06:44.950Z,13.47
2022-10-10T21:09:14.029Z,13.46
2022-10-10T21:11:41.185Z,13.43
2022-10-10T21:14:08.373Z,13.45
2022-10-10T21:16:39.128Z,13.39
2022-10-10T21:19:07.318Z,13.45
2022-10-10T21:21:36.041Z,13.46
2022-10-10T21:24:05.962Z,13.45
2022-10-10T21:26:33.215Z,13.48
2022-10-10T21:29:01.186Z,13.52
2022-10-10T21:31:32.640Z,13.43
2022-10-10T21:34:02.322Z,13.41
2022-10-10T21:36:30.654Z,13.45
2022-10-10T21:38:59.139Z,13.43
2022-10-10T21:41:26.397Z,13.40
2022-10-10T21:43:57.315Z,13.41
2022-10-10T21:46:34.722Z,13.38
2022-10-10T21:49:05.596Z,13.20
2022-10-10T21:51:35.978Z,13.22
2022-10-10T21:54:02.827Z,13.24
2022-10-10T21:56:29.389Z,13.21
2022-10-10T21:59:00.271Z,13.23
2022-10-10T22:01:27.993Z,13.22
2022-10-10T22:03:56.333Z,13.23
2022-10-10T22:06:24.761Z,13.30
2022-10-10T22:08:55.810Z,13.29
2022-10-10T22:11:25.335Z,13.23
2022-10-10T22:13:52.630Z,13.20
2022-10-10T22:16:19.948Z,13.19
2022-10-10T22:18:46.556Z,13.16
2022-10-10T22:21:15.727Z,13.18
2022-10-10T22:23:43.524Z,13.21
2022-10-10T22:26:12.795Z,13.18
2022-10-10T22:28:39.479Z,13.09
2022-10-10T22:31:11.646Z,13.14
2022-10-10T22:33:38.644Z,13.15
2022-10-10T22:36:06.883Z,13.12
2022-10-10T22:38:37.855Z,13.12
2022-10-10T22:41:04.559Z,13.11
2022-10-10T22:43:31.303Z,13.08
2022-10-10T22:45:58.108Z,13.08
2022-10-10T22:48:25.306Z,13.16
2022-10-10T22:51:07.285Z,13.09
2022-10-10T22:53:33.951Z,13.14
2022-10-10T22:56:00.554Z,13.12
2022-10-10T22:58:27.305Z,13.09
2022-10-10T23:00:54.068Z,13.11
2022-10-10T23:03:20.781Z,13.13
2022-10-10T23:05:47.467Z,13.10
2022-10-10T23:08:14.360Z,13.14
2022-10-10T23:10:40.951Z,13.13
2022-10-10T23:13:07.581Z,13.11
2022-10-10T23:15:34.188Z,13.18
2022-10-10T23:18:00.919Z,13.14
2022-10-10T23:20:27.595Z,12.96
2022-10-10T23:22:54.767Z,13.06
2022-10-10T23:25:21.552Z,13.07
2022-10-10T23:27:48.261Z,13.09
2022-10-10T23:30:15.165Z,13.11
2022-10-10T23:32:41.988Z,13.11
2022-10-10T23:35:09.253Z,13.07
2022-10-10T23:37:35.893Z,13.10
2022-10-10T23:40:02.529Z,13.17
2022-10-10T23:42:29.168Z,13.14
2022-10-10T23:44:55.743Z,13.12
2022-10-10T23:47:22.376Z,13.03
2022-10-10T23:49:48.926Z,12.97
2022-10-10T23:52:15.869Z,12.87
2022-10-10T23:54:42.493Z,12.91
2022-10-10T23:57:09.188Z,12.92
2022-10-10T23:59:35.869Z,12.98
